Portada
METAR-TAF:

METAR-TAF

Aeropuertos :

Aurora Municipal Airport (Al Potter Field)

Aurora, Nebraska, Estados Unidos

latitud: 40-53-38N, longitud: 097-59-40W, altitud: 550 m

Observación

El informe se hizo hace 32 minutos, a las 06:35 UTC
Viento 14 kt del sur con ráfagas de 19 kt
Temperatura 27°C
Humedad 70%
Presión 1010 hPa
Visibilidad: 16.1 km
Cielo despejado

METAR: KAUH 070635Z AUTO 17014G19KT 10SM CLR 27/21 A2982 RMK AO2 T02660210

Hora: 02:07 (07:07 UTC)


TAF: falta

Observaciones y pronósticos meteorológicos de más de 4000 aeropuertos (mensajes METAR y TAF).

Los puntos amarillos y rojos representan las estaciones disponibles.

Ponga el ratón en el punto deseado para ver el nombre de la estación.

Haga clic para ver las observaciones y los pronósticos meteorológicos.

Para cambiar el mapa : haga clic en los botones verdes con una cruz de color negro para hacer un zoom, en el botón verde con un guión para alejar o en las flechas verdes para mapas adyacentes.


METAR-TAF: